sensor_id;sensor_type;location;lat;lon;timestamp;temperature;humidity
1129;DHT22;553;51.038;7.216;2024-03-25T00:00:38;6.40;99.90
1129;DHT22;553;51.038;7.216;2024-03-25T00:03:04;6.50;99.90
1129;DHT22;553;51.038;7.216;2024-03-25T00:05:30;6.50;99.90
1129;DHT22;553;51.038;7.216;2024-03-25T00:07:58;6.40;99.90
1129;DHT22;553;51.038;7.216;2024-03-25T00:10:24;6.40;99.90
1129;DHT22;553;51.038;7.216;2024-03-25T00:12:50;6.50;99.90
1129;DHT22;553;51.038;7.216;2024-03-25T00:15:21;6.50;99.90
1129;DHT22;553;51.038;7.216;2024-03-25T00:17:50;6.40;99.90
1129;DHT22;553;51.038;7.216;2024-03-25T00:20:16;6.40;99.90
1129;DHT22;553;51.038;7.216;2024-03-25T00:22:42;6.40;99.90
1129;DHT22;553;51.038;7.216;2024-03-25T00:25:08;6.40;99.90
1129;DHT22;553;51.038;7.216;2024-03-25T00:27:34;6.40;99.90
1129;DHT22;553;51.038;7.216;2024-03-25T00:30:00;6.30;99.90
1129;DHT22;553;51.038;7.216;2024-03-25T00:32:26;6.30;99.90
1129;DHT22;553;51.038;7.216;2024-03-25T00:34:52;6.40;99.90
1129;DHT22;553;51.038;7.216;2024-03-25T00:37:18;6.40;99.90
1129;DHT22;553;51.038;7.216;2024-03-25T00:39:44;6.40;99.90
1129;DHT22;553;51.038;7.216;2024-03-25T00:42:11;6.40;99.90
1129;DHT22;553;51.038;7.216;2024-03-25T00:44:37;6.40;99.90
1129;DHT22;553;51.038;7.216;2024-03-25T00:47:03;6.40;99.90
1129;DHT22;553;51.038;7.216;2024-03-25T00:49:29;6.40;99.90
1129;DHT22;553;51.038;7.216;2024-03-25T00:51:55;6.40;99.90
1129;DHT22;553;51.038;7.216;2024-03-25T00:54:21;6.40;99.90
1129;DHT22;553;51.038;7.216;2024-03-25T00:56:49;6.40;99.90
1129;DHT22;553;51.038;7.216;2024-03-25T00:59:15;6.30;99.90
1129;DHT22;553;51.038;7.216;2024-03-25T01:01:42;6.30;99.90
1129;DHT22;553;51.038;7.216;2024-03-25T01:04:07;6.20;99.90
1129;DHT22;553;51.038;7.216;2024-03-25T01:06:33;6.20;99.90
1129;DHT22;553;51.038;7.216;2024-03-25T01:08:59;6.20;99.90
1129;DHT22;553;51.038;7.216;2024-03-25T01:11:25;6.20;99.90
1129;DHT22;553;51.038;7.216;2024-03-25T01:13:51;6.10;99.90
1129;DHT22;553;51.038;7.216;2024-03-25T01:16:16;6.00;99.90
1129;DHT22;553;51.038;7.216;2024-03-25T01:18:42;6.00;99.90
1129;DHT22;553;51.038;7.216;2024-03-25T01:21:08;6.10;99.90
1129;DHT22;553;51.038;7.216;2024-03-25T01:23:35;6.00;99.90
1129;DHT22;553;51.038;7.216;2024-03-25T01:26:00;6.20;99.90
1129;DHT22;553;51.038;7.216;2024-03-25T01:28:26;6.20;99.90
1129;DHT22;553;51.038;7.216;2024-03-25T01:30:53;6.20;99.90
1129;DHT22;553;51.038;7.216;2024-03-25T01:33:19;6.10;99.90
1129;DHT22;553;51.038;7.216;2024-03-25T01:35:45;6.10;99.90
1129;DHT22;553;51.038;7.216;2024-03-25T01:38:11;6.10;99.90
1129;DHT22;553;51.038;7.216;2024-03-25T01:40:37;6.10;99.90
1129;DHT22;553;51.038;7.216;2024-03-25T01:43:03;6.20;99.90
1129;DHT22;553;51.038;7.216;2024-03-25T01:45:31;6.20;99.90
1129;DHT22;553;51.038;7.216;2024-03-25T01:48:01;6.20;99.90
1129;DHT22;553;51.038;7.216;2024-03-25T01:50:29;6.20;99.90
1129;DHT22;553;51.038;7.216;2024-03-25T01:52:56;6.20;99.90
1129;DHT22;553;51.038;7.216;2024-03-25T01:55:25;6.10;99.90
1129;DHT22;553;51.038;7.216;2024-03-25T01:57:52;6.20;99.90
1129;DHT22;553;51.038;7.216;2024-03-25T02:00:18;6.00;99.90
1129;DHT22;553;51.038;7.216;2024-03-25T02:02:48;6.00;99.90
1129;DHT22;553;51.038;7.216;2024-03-25T02:05:18;6.00;99.90
1129;DHT22;553;51.038;7.216;2024-03-25T02:07:44;5.90;99.90
1129;DHT22;553;51.038;7.216;2024-03-25T02:10:11;6.00;99.90
1129;DHT22;553;51.038;7.216;2024-03-25T02:12:44;6.00;99.90
1129;DHT22;553;51.038;7.216;2024-03-25T02:15:11;5.90;99.90
1129;DHT22;553;51.038;7.216;2024-03-25T02:17:38;6.00;99.90
1129;DHT22;553;51.038;7.216;2024-03-25T02:20:06;6.00;99.90
1129;DHT22;553;51.038;7.216;2024-03-25T02:22:34;6.00;99.90
1129;DHT22;553;51.038;7.216;2024-03-25T02:25:01;6.00;99.90
1129;DHT22;553;51.038;7.216;2024-03-25T02:27:30;5.90;99.90
1129;DHT22;553;51.038;7.216;2024-03-25T02:30:05;5.90;99.90
1129;DHT22;553;51.038;7.216;2024-03-25T02:32:35;6.00;99.90
1129;DHT22;553;51.038;7.216;2024-03-25T02:35:07;5.90;99.90
1129;DHT22;553;51.038;7.216;2024-03-25T02:37:36;5.90;99.90
1129;DHT22;553;51.038;7.216;2024-03-25T02:40:03;5.90;99.90
1129;DHT22;553;51.038;7.216;2024-03-25T02:42:31;5.80;99.90
1129;DHT22;553;51.038;7.216;2024-03-25T02:44:58;5.80;99.90
1129;DHT22;553;51.038;7.216;2024-03-25T02:47:25;5.90;99.90
1129;DHT22;553;51.038;7.216;2024-03-25T02:49:51;5.80;99.90
1129;DHT22;553;51.038;7.216;2024-03-25T02:52:19;5.80;99.90
1129;DHT22;553;51.038;7.216;2024-03-25T02:54:45;5.70;99.90
1129;DHT22;553;51.038;7.216;2024-03-25T02:57:11;5.70;99.90
1129;DHT22;553;51.038;7.216;2024-03-25T02:59:37;5.80;99.90
1129;DHT22;553;51.038;7.216;2024-03-25T03:02:03;5.70;99.90
1129;DHT22;553;51.038;7.216;2024-03-25T03:04:29;5.70;99.90
1129;DHT22;553;51.038;7.216;2024-03-25T03:06:56;5.70;99.90
1129;DHT22;553;51.038;7.216;2024-03-25T03:09:22;5.80;99.90
1129;DHT22;553;51.038;7.216;2024-03-25T03:11:48;5.70;99.90
1129;DHT22;553;51.038;7.216;2024-03-25T03:14:14;5.80;99.90
1129;DHT22;553;51.038;7.216;2024-03-25T03:16:39;5.70;99.90
1129;DHT22;553;51.038;7.216;2024-03-25T03:19:05;5.80;99.90
1129;DHT22;553;51.038;7.216;2024-03-25T03:21:31;5.80;99.90
1129;DHT22;553;51.038;7.216;2024-03-25T03:23:57;5.90;99.90
1129;DHT22;553;51.038;7.216;2024-03-25T03:26:23;5.90;99.90
1129;DHT22;553;51.038;7.216;2024-03-25T03:28:53;6.10;99.90
1129;DHT22;553;51.038;7.216;2024-03-25T03:31:19;6.00;99.90
1129;DHT22;553;51.038;7.216;2024-03-25T03:33:50;6.00;99.90
1129;DHT22;553;51.038;7.216;2024-03-25T03:36:18;6.10;99.90
1129;DHT22;553;51.038;7.216;2024-03-25T03:38:45;6.10;99.90
1129;DHT22;553;51.038;7.216;2024-03-25T03:41:11;6.10;99.90
1129;DHT22;553;51.038;7.216;2024-03-25T03:43:37;6.10;99.90
1129;DHT22;553;51.038;7.216;2024-03-25T03:46:03;6.20;99.90
1129;DHT22;553;51.038;7.216;2024-03-25T03:48:29;6.20;99.90
1129;DHT22;553;51.038;7.216;2024-03-25T03:50:55;6.10;99.90
1129;DHT22;553;51.038;7.216;2024-03-25T03:53:21;6.00;99.90
1129;DHT22;553;51.038;7.216;2024-03-25T03:55:57;6.00;99.90
1129;DHT22;553;51.038;7.216;2024-03-25T03:58:24;6.00;99.90
1129;DHT22;553;51.038;7.216;2024-03-25T04:00:50;6.00;99.90
1129;DHT22;553;51.038;7.216;2024-03-25T04:03:16;6.00;99.90
1129;DHT22;553;51.038;7.216;2024-03-25T04:05:42;6.00;99.90
1129;DHT22;553;51.038;7.216;2024-03-25T04:08:08;5.80;99.90
1129;DHT22;553;51.038;7.216;2024-03-25T04:10:35;5.80;99.90
1129;DHT22;553;51.038;7.216;2024-03-25T04:13:02;5.80;99.90
1129;DHT22;553;51.038;7.216;2024-03-25T04:15:28;5.80;99.90
1129;DHT22;553;51.038;7.216;2024-03-25T04:17:53;5.80;99.90
1129;DHT22;553;51.038;7.216;2024-03-25T04:20:19;5.80;99.90
1129;DHT22;553;51.038;7.216;2024-03-25T04:22:46;5.80;99.90
1129;DHT22;553;51.038;7.216;2024-03-25T04:25:13;5.90;99.90
1129;DHT22;553;51.038;7.216;2024-03-25T04:27:43;5.80;99.90
1129;DHT22;553;51.038;7.216;2024-03-25T04:30:10;5.80;99.90
1129;DHT22;553;51.038;7.216;2024-03-25T04:32:38;5.90;99.90
1129;DHT22;553;51.038;7.216;2024-03-25T04:35:04;5.90;99.90
1129;DHT22;553;51.038;7.216;2024-03-25T04:37:33;5.90;99.90
1129;DHT22;553;51.038;7.216;2024-03-25T04:39:59;6.00;99.90
1129;DHT22;553;51.038;7.216;2024-03-25T04:42:25;6.00;99.90
1129;DHT22;553;51.038;7.216;2024-03-25T04:44:51;6.10;99.90
1129;DHT22;553;51.038;7.216;2024-03-25T04:47:17;6.00;99.90
1129;DHT22;553;51.038;7.216;2024-03-25T04:49:43;6.00;99.90
1129;DHT22;553;51.038;7.216;2024-03-25T04:52:13;6.00;99.90
1129;DHT22;553;51.038;7.216;2024-03-25T04:54:43;6.00;99.90
1129;DHT22;553;51.038;7.216;2024-03-25T04:57:09;5.90;99.90
1129;DHT22;553;51.038;7.216;2024-03-25T04:59:35;5.90;99.90
1129;DHT22;553;51.038;7.216;2024-03-25T05:02:01;5.90;99.90
1129;DHT22;553;51.038;7.216;2024-03-25T05:04:27;5.90;99.90
1129;DHT22;553;51.038;7.216;2024-03-25T05:06:53;5.90;99.90
1129;DHT22;553;51.038;7.216;2024-03-25T05:09:19;5.90;99.90
1129;DHT22;553;51.038;7.216;2024-03-25T05:11:45;5.90;99.90
1129;DHT22;553;51.038;7.216;2024-03-25T05:14:11;6.00;99.90
1129;DHT22;553;51.038;7.216;2024-03-25T05:16:37;6.00;99.90
1129;DHT22;553;51.038;7.216;2024-03-25T05:19:03;6.00;99.90
1129;DHT22;553;51.038;7.216;2024-03-25T05:21:30;5.90;99.90
1129;DHT22;553;51.038;7.216;2024-03-25T05:23:56;5.80;99.90
1129;DHT22;553;51.038;7.216;2024-03-25T05:26:22;5.80;99.90
1129;DHT22;553;51.038;7.216;2024-03-25T05:28:55;5.70;99.90
1129;DHT22;553;51.038;7.216;2024-03-25T05:31:21;5.70;99.90
1129;DHT22;553;51.038;7.216;2024-03-25T05:33:47;5.70;99.90
1129;DHT22;553;51.038;7.216;2024-03-25T05:36:13;5.80;99.90
1129;DHT22;553;51.038;7.216;2024-03-25T05:38:39;5.70;99.90
1129;DHT22;553;51.038;7.216;2024-03-25T05:41:05;5.80;99.90
1129;DHT22;553;51.038;7.216;2024-03-25T05:43:31;5.80;99.90
1129;DHT22;553;51.038;7.216;2024-03-25T05:45:57;5.70;99.90
1129;DHT22;553;51.038;7.216;2024-03-25T05:48:27;5.70;99.90
1129;DHT22;553;51.038;7.216;2024-03-25T05:51:05;5.80;99.90
1129;DHT22;553;51.038;7.216;2024-03-25T05:53:33;5.90;99.90
1129;DHT22;553;51.038;7.216;2024-03-25T05:55:59;5.80;99.90
1129;DHT22;553;51.038;7.216;2024-03-25T05:58:26;5.90;99.90
1129;DHT22;553;51.038;7.216;2024-03-25T06:00:53;5.80;99.90
1129;DHT22;553;51.038;7.216;2024-03-25T06:03:18;5.80;99.90
1129;DHT22;553;51.038;7.216;2024-03-25T06:05:44;5.80;99.90
1129;DHT22;553;51.038;7.216;2024-03-25T06:08:10;6.00;99.90
1129;DHT22;553;51.038;7.216;2024-03-25T06:10:45;6.10;99.90
1129;DHT22;553;51.038;7.216;2024-03-25T06:13:11;6.20;99.90
1129;DHT22;553;51.038;7.216;2024-03-25T06:15:37;6.30;99.90
1129;DHT22;553;51.038;7.216;2024-03-25T06:18:03;6.40;99.90
1129;DHT22;553;51.038;7.216;2024-03-25T06:20:29;6.50;99.90
1129;DHT22;553;51.038;7.216;2024-03-25T06:22:55;6.40;99.90
1129;DHT22;553;51.038;7.216;2024-03-25T06:25:21;6.50;99.90
1129;DHT22;553;51.038;7.216;2024-03-25T06:27:47;6.40;99.90
1129;DHT22;553;51.038;7.216;2024-03-25T06:30:13;6.40;99.90
1129;DHT22;553;51.038;7.216;2024-03-25T06:32:57;6.50;99.90
1129;DHT22;553;51.038;7.216;2024-03-25T06:35:45;6.40;99.90
1129;DHT22;553;51.038;7.216;2024-03-25T06:38:11;6.40;99.90
1129;DHT22;553;51.038;7.216;2024-03-25T06:40:38;6.40;99.90
1129;DHT22;553;51.038;7.216;2024-03-25T06:43:04;6.30;99.90
1129;DHT22;553;51.038;7.216;2024-03-25T06:45:30;6.30;99.90
1129;DHT22;553;51.038;7.216;2024-03-25T06:47:56;6.30;99.90
1129;DHT22;553;51.038;7.216;2024-03-25T06:50:23;6.30;99.90
1129;DHT22;553;51.038;7.216;2024-03-25T06:52:50;6.20;99.90
1129;DHT22;553;51.038;7.216;2024-03-25T06:55:16;6.10;99.90
1129;DHT22;553;51.038;7.216;2024-03-25T06:57:43;6.10;99.90
1129;DHT22;553;51.038;7.216;2024-03-25T07:00:08;6.20;99.90
1129;DHT22;553;51.038;7.216;2024-03-25T07:02:39;6.20;99.90
1129;DHT22;553;51.038;7.216;2024-03-25T07:05:06;6.20;99.90
1129;DHT22;553;51.038;7.216;2024-03-25T07:07:32;6.30;99.90
1129;DHT22;553;51.038;7.216;2024-03-25T07:09:58;6.30;99.90
1129;DHT22;553;51.038;7.216;2024-03-25T07:12:23;6.30;99.90
1129;DHT22;553;51.038;7.216;2024-03-25T07:14:49;6.40;99.90
1129;DHT22;553;51.038;7.216;2024-03-25T07:17:15;6.30;99.90
1129;DHT22;553;51.038;7.216;2024-03-25T07:19:41;6.30;99.90
1129;DHT22;553;51.038;7.216;2024-03-25T07:22:08;6.50;99.90
1129;DHT22;553;51.038;7.216;2024-03-25T07:24:34;6.50;99.90
1129;DHT22;553;51.038;7.216;2024-03-25T07:26:59;6.60;99.90
1129;DHT22;553;51.038;7.216;2024-03-25T07:29:25;6.60;99.90
1129;DHT22;553;51.038;7.216;2024-03-25T07:31:51;6.70;99.90
1129;DHT22;553;51.038;7.216;2024-03-25T07:34:17;6.80;99.90
1129;DHT22;553;51.038;7.216;2024-03-25T07:36:45;6.70;99.90
1129;DHT22;553;51.038;7.216;2024-03-25T07:39:11;6.60;99.90
1129;DHT22;553;51.038;7.216;2024-03-25T07:41:37;6.60;99.90
1129;DHT22;553;51.038;7.216;2024-03-25T07:44:03;7.10;99.90
1129;DHT22;553;51.038;7.216;2024-03-25T07:46:30;7.00;99.90
1129;DHT22;553;51.038;7.216;2024-03-25T07:48:56;7.10;99.90
1129;DHT22;553;51.038;7.216;2024-03-25T07:51:22;7.30;99.90
1129;DHT22;553;51.038;7.216;2024-03-25T07:53:48;7.30;99.90
1129;DHT22;553;51.038;7.216;2024-03-25T07:56:17;7.50;99.90
1129;DHT22;553;51.038;7.216;2024-03-25T07:58:43;7.70;99.90
1129;DHT22;553;51.038;7.216;2024-03-25T08:01:09;8.00;99.90
1129;DHT22;553;51.038;7.216;2024-03-25T08:03:34;8.20;99.90
1129;DHT22;553;51.038;7.216;2024-03-25T08:06:00;8.20;99.90
1129;DHT22;553;51.038;7.216;2024-03-25T08:08:26;8.40;99.90
1129;DHT22;553;51.038;7.216;2024-03-25T08:10:53;8.50;99.90
1129;DHT22;553;51.038;7.216;2024-03-25T08:13:19;8.60;99.90
1129;DHT22;553;51.038;7.216;2024-03-25T08:15:48;9.00;99.90
1129;DHT22;553;51.038;7.216;2024-03-25T08:18:14;9.00;99.90
1129;DHT22;553;51.038;7.216;2024-03-25T08:20:40;9.40;99.90
1129;DHT22;553;51.038;7.216;2024-03-25T08:23:05;9.40;99.90
1129;DHT22;553;51.038;7.216;2024-03-25T08:25:32;9.60;99.70
1129;DHT22;553;51.038;7.216;2024-03-25T08:27:58;9.40;99.90
1129;DHT22;553;51.038;7.216;2024-03-25T08:30:25;9.60;99.90
1129;DHT22;553;51.038;7.216;2024-03-25T08:32:51;9.60;99.90
1129;DHT22;553;51.038;7.216;2024-03-25T08:35:17;9.60;99.30
1129;DHT22;553;51.038;7.216;2024-03-25T08:37:43;9.30;99.40
1129;DHT22;553;51.038;7.216;2024-03-25T08:40:09;9.10;99.90
1129;DHT22;553;51.038;7.216;2024-03-25T08:42:35;9.00;99.90
1129;DHT22;553;51.038;7.216;2024-03-25T08:45:02;9.20;99.90
1129;DHT22;553;51.038;7.216;2024-03-25T08:47:27;9.00;99.30
1129;DHT22;553;51.038;7.216;2024-03-25T08:49:53;8.70;99.60
1129;DHT22;553;51.038;7.216;2024-03-25T08:52:19;8.60;99.70
1129;DHT22;553;51.038;7.216;2024-03-25T08:54:45;8.60;99.90
1129;DHT22;553;51.038;7.216;2024-03-25T08:57:11;9.00;98.30
1129;DHT22;553;51.038;7.216;2024-03-25T08:59:36;8.90;97.30
1129;DHT22;553;51.038;7.216;2024-03-25T09:02:02;9.00;96.70
1129;DHT22;553;51.038;7.216;2024-03-25T09:04:28;9.20;97.40
1129;DHT22;553;51.038;7.216;2024-03-25T09:06:54;9.20;98.20
1129;DHT22;553;51.038;7.216;2024-03-25T09:09:20;9.40;97.10
1129;DHT22;553;51.038;7.216;2024-03-25T09:12:04;9.40;98.90
1129;DHT22;553;51.038;7.216;2024-03-25T09:14:30;9.40;97.90
1129;DHT22;553;51.038;7.216;2024-03-25T09:16:59;9.50;97.10
1129;DHT22;553;51.038;7.216;2024-03-25T09:19:26;9.40;94.90
1129;DHT22;553;51.038;7.216;2024-03-25T09:21:52;9.40;96.00
1129;DHT22;553;51.038;7.216;2024-03-25T09:24:17;9.50;96.40
1129;DHT22;553;51.038;7.216;2024-03-25T09:26:44;9.60;92.40
1129;DHT22;553;51.038;7.216;2024-03-25T09:29:12;9.60;92.50
1129;DHT22;553;51.038;7.216;2024-03-25T09:31:38;9.60;91.80
1129;DHT22;553;51.038;7.216;2024-03-25T09:34:05;9.40;92.50
1129;DHT22;553;51.038;7.216;2024-03-25T09:36:31;9.40;92.50
1129;DHT22;553;51.038;7.216;2024-03-25T09:38:57;9.40;90.70
1129;DHT22;553;51.038;7.216;2024-03-25T09:41:23;9.20;91.90
1129;DHT22;553;51.038;7.216;2024-03-25T09:43:56;9.40;93.80
1129;DHT22;553;51.038;7.216;2024-03-25T09:46:23;9.60;92.10
1129;DHT22;553;51.038;7.216;2024-03-25T09:48:53;9.60;90.90
1129;DHT22;553;51.038;7.216;2024-03-25T09:51:20;9.80;91.00
1129;DHT22;553;51.038;7.216;2024-03-25T09:53:46;9.90;90.10
1129;DHT22;553;51.038;7.216;2024-03-25T09:56:13;10.20;90.90
1129;DHT22;553;51.038;7.216;2024-03-25T09:58:39;10.30;91.20
1129;DHT22;553;51.038;7.216;2024-03-25T10:01:06;10.40;89.70
1129;DHT22;553;51.038;7.216;2024-03-25T10:03:32;10.30;91.10
1129;DHT22;553;51.038;7.216;2024-03-25T10:05:58;10.30;90.60
1129;DHT22;553;51.038;7.216;2024-03-25T10:08:24;10.40;91.40
1129;DHT22;553;51.038;7.216;2024-03-25T10:10:56;10.20;91.60
1129;DHT22;553;51.038;7.216;2024-03-25T10:13:22;10.10;90.50
1129;DHT22;553;51.038;7.216;2024-03-25T10:15:49;10.30;91.00
1129;DHT22;553;51.038;7.216;2024-03-25T10:18:15;10.50;90.10
1129;DHT22;553;51.038;7.216;2024-03-25T10:20:50;10.70;87.20
1129;DHT22;553;51.038;7.216;2024-03-25T10:23:20;10.80;88.50
1129;DHT22;553;51.038;7.216;2024-03-25T10:25:48;11.00;86.90
1129;DHT22;553;51.038;7.216;2024-03-25T10:28:14;10.80;88.50
1129;DHT22;553;51.038;7.216;2024-03-25T10:30:40;11.00;88.90
1129;DHT22;553;51.038;7.216;2024-03-25T10:33:07;11.30;87.40
1129;DHT22;553;51.038;7.216;2024-03-25T10:35:37;11.60;85.50
1129;DHT22;553;51.038;7.216;2024-03-25T10:38:09;11.20;85.00
1129;DHT22;553;51.038;7.216;2024-03-25T10:40:39;11.00;85.50
1129;DHT22;553;51.038;7.216;2024-03-25T10:43:10;11.10;86.10
1129;DHT22;553;51.038;7.216;2024-03-25T10:45:49;11.00;86.70
1129;DHT22;553;51.038;7.216;2024-03-25T10:48:25;11.10;86.40
1129;DHT22;553;51.038;7.216;2024-03-25T10:50:53;11.10;87.20
1129;DHT22;553;51.038;7.216;2024-03-25T10:53:21;10.90;85.90
1129;DHT22;553;51.038;7.216;2024-03-25T10:55:53;11.00;87.70
1129;DHT22;553;51.038;7.216;2024-03-25T10:58:21;11.40;86.80
1129;DHT22;553;51.038;7.216;2024-03-25T11:00:49;12.10;92.20
1129;DHT22;553;51.038;7.216;2024-03-25T11:03:16;13.80;81.20
1129;DHT22;553;51.038;7.216;2024-03-25T11:05:42;13.10;81.00
1129;DHT22;553;51.038;7.216;2024-03-25T11:08:15;12.70;80.70
1129;DHT22;553;51.038;7.216;2024-03-25T11:10:46;12.60;82.50
1129;DHT22;553;51.038;7.216;2024-03-25T11:13:19;14.20;80.90
1129;DHT22;553;51.038;7.216;2024-03-25T11:15:47;13.90;79.80
1129;DHT22;553;51.038;7.216;2024-03-25T11:18:18;12.90;79.20
1129;DHT22;553;51.038;7.216;2024-03-25T11:21:05;12.70;80.50
1129;DHT22;553;51.038;7.216;2024-03-25T11:23:41;12.80;80.20
1129;DHT22;553;51.038;7.216;2024-03-25T11:26:40;13.00;80.40
1129;DHT22;553;51.038;7.216;2024-03-25T11:29:06;12.80;79.90
1129;DHT22;553;51.038;7.216;2024-03-25T11:31:33;12.80;80.30
1129;DHT22;553;51.038;7.216;2024-03-25T11:34:05;12.60;80.20
1129;DHT22;553;51.038;7.216;2024-03-25T11:36:34;12.60;81.00
1129;DHT22;553;51.038;7.216;2024-03-25T11:39:01;12.40;80.20
1129;DHT22;553;51.038;7.216;2024-03-25T11:41:33;12.20;82.10
1129;DHT22;553;51.038;7.216;2024-03-25T11:43:59;12.30;82.30
1129;DHT22;553;51.038;7.216;2024-03-25T11:46:26;12.20;80.00
1129;DHT22;553;51.038;7.216;2024-03-25T11:48:53;12.20;81.60
1129;DHT22;553;51.038;7.216;2024-03-25T11:51:19;12.20;81.80
1129;DHT22;553;51.038;7.216;2024-03-25T11:53:46;12.50;81.20
1129;DHT22;553;51.038;7.216;2024-03-25T11:56:12;12.60;80.90
1129;DHT22;553;51.038;7.216;2024-03-25T11:58:38;12.60;79.90
1129;DHT22;553;51.038;7.216;2024-03-25T12:01:04;12.50;79.80
1129;DHT22;553;51.038;7.216;2024-03-25T12:03:30;12.40;80.50
1129;DHT22;553;51.038;7.216;2024-03-25T12:05:56;12.40;80.50
1129;DHT22;553;51.038;7.216;2024-03-25T12:08:23;12.30;79.80
1129;DHT22;553;51.038;7.216;2024-03-25T12:10:52;12.20;80.40
1129;DHT22;553;51.038;7.216;2024-03-25T12:13:40;12.10;77.90
1129;DHT22;553;51.038;7.216;2024-03-25T12:16:09;12.20;78.60
1129;DHT22;553;51.038;7.216;2024-03-25T12:18:40;12.40;79.60
1129;DHT22;553;51.038;7.216;2024-03-25T12:21:07;12.50;79.20
1129;DHT22;553;51.038;7.216;2024-03-25T12:23:34;12.50;78.90
1129;DHT22;553;51.038;7.216;2024-03-25T12:26:01;12.70;80.10
1129;DHT22;553;51.038;7.216;2024-03-25T12:28:27;12.90;77.80
1129;DHT22;553;51.038;7.216;2024-03-25T12:30:55;13.00;76.50
1129;DHT22;553;51.038;7.216;2024-03-25T12:33:24;13.00;77.20
1129;DHT22;553;51.038;7.216;2024-03-25T12:35:52;12.90;76.70
1129;DHT22;553;51.038;7.216;2024-03-25T12:38:22;13.20;76.50
1129;DHT22;553;51.038;7.216;2024-03-25T12:40:48;13.10;75.30
1129;DHT22;553;51.038;7.216;2024-03-25T12:43:17;13.00;75.50
1129;DHT22;553;51.038;7.216;2024-03-25T12:45:43;13.00;76.20
1129;DHT22;553;51.038;7.216;2024-03-25T12:48:10;12.90;77.40
1129;DHT22;553;51.038;7.216;2024-03-25T12:50:36;12.80;77.40
1129;DHT22;553;51.038;7.216;2024-03-25T12:53:02;13.00;77.70
1129;DHT22;553;51.038;7.216;2024-03-25T12:55:31;12.90;77.00
1129;DHT22;553;51.038;7.216;2024-03-25T12:57:57;13.10;76.10
1129;DHT22;553;51.038;7.216;2024-03-25T13:00:23;13.00;75.10
1129;DHT22;553;51.038;7.216;2024-03-25T13:02:49;13.10;75.20
1129;DHT22;553;51.038;7.216;2024-03-25T13:05:16;13.00;74.20
1129;DHT22;553;51.038;7.216;2024-03-25T13:07:42;12.90;76.10
1129;DHT22;553;51.038;7.216;2024-03-25T13:10:08;12.70;74.80
1129;DHT22;553;51.038;7.216;2024-03-25T13:12:34;12.70;74.80
1129;DHT22;553;51.038;7.216;2024-03-25T13:15:00;12.70;74.00
1129;DHT22;553;51.038;7.216;2024-03-25T13:17:26;12.70;76.00
1129;DHT22;553;51.038;7.216;2024-03-25T13:19:52;12.70;75.60
1129;DHT22;553;51.038;7.216;2024-03-25T13:22:18;13.00;78.70
1129;DHT22;553;51.038;7.216;2024-03-25T13:24:43;14.20;76.10
1129;DHT22;553;51.038;7.216;2024-03-25T13:27:09;13.70;71.10
1129;DHT22;553;51.038;7.216;2024-03-25T13:29:35;13.40;74.60
1129;DHT22;553;51.038;7.216;2024-03-25T13:32:03;13.40;72.80
1129;DHT22;553;51.038;7.216;2024-03-25T13:34:29;13.50;73.90
1129;DHT22;553;51.038;7.216;2024-03-25T13:36:55;13.20;73.90
1129;DHT22;553;51.038;7.216;2024-03-25T13:39:21;13.10;73.90
1129;DHT22;553;51.038;7.216;2024-03-25T13:41:47;13.00;75.30
1129;DHT22;553;51.038;7.216;2024-03-25T13:44:13;13.10;73.70
1129;DHT22;553;51.038;7.216;2024-03-25T13:46:39;13.10;73.00
1129;DHT22;553;51.038;7.216;2024-03-25T13:49:05;13.20;74.30
1129;DHT22;553;51.038;7.216;2024-03-25T13:51:31;13.10;74.90
1129;DHT22;553;51.038;7.216;2024-03-25T13:53:57;13.10;72.70
1129;DHT22;553;51.038;7.216;2024-03-25T13:56:22;13.10;75.10
1129;DHT22;553;51.038;7.216;2024-03-25T13:58:48;13.10;72.60
1129;DHT22;553;51.038;7.216;2024-03-25T14:01:14;12.90;73.60
1129;DHT22;553;51.038;7.216;2024-03-25T14:03:41;13.00;74.70
1129;DHT22;553;51.038;7.216;2024-03-25T14:06:06;12.90;73.60
1129;DHT22;553;51.038;7.216;2024-03-25T14:08:32;12.90;72.90
1129;DHT22;553;51.038;7.216;2024-03-25T14:10:59;12.90;72.20
1129;DHT22;553;51.038;7.216;2024-03-25T14:13:25;12.90;72.50
1129;DHT22;553;51.038;7.216;2024-03-25T14:15:51;12.90;72.10
1129;DHT22;553;51.038;7.216;2024-03-25T14:18:17;12.80;73.20
1129;DHT22;553;51.038;7.216;2024-03-25T14:20:43;13.00;72.10
1129;DHT22;553;51.038;7.216;2024-03-25T14:23:10;12.90;72.50
1129;DHT22;553;51.038;7.216;2024-03-25T14:25:37;12.70;71.60
1129;DHT22;553;51.038;7.216;2024-03-25T14:28:03;12.80;73.20
1129;DHT22;553;51.038;7.216;2024-03-25T14:30:29;12.70;72.20
1129;DHT22;553;51.038;7.216;2024-03-25T14:32:55;12.60;72.00
1129;DHT22;553;51.038;7.216;2024-03-25T14:35:22;12.60;72.30
1129;DHT22;553;51.038;7.216;2024-03-25T14:37:48;12.70;72.40
1129;DHT22;553;51.038;7.216;2024-03-25T14:40:15;12.80;71.40
1129;DHT22;553;51.038;7.216;2024-03-25T14:42:43;12.70;70.80
1129;DHT22;553;51.038;7.216;2024-03-25T14:45:09;12.90;72.40
1129;DHT22;553;51.038;7.216;2024-03-25T14:47:35;12.90;70.90
1129;DHT22;553;51.038;7.216;2024-03-25T14:50:00;12.80;70.60
1129;DHT22;553;51.038;7.216;2024-03-25T14:52:26;12.70;69.60
1129;DHT22;553;51.038;7.216;2024-03-25T14:54:52;12.70;71.50
1129;DHT22;553;51.038;7.216;2024-03-25T14:57:18;12.80;71.60
1129;DHT22;553;51.038;7.216;2024-03-25T14:59:44;12.80;70.20
1129;DHT22;553;51.038;7.216;2024-03-25T15:02:10;12.60;69.40
1129;DHT22;553;51.038;7.216;2024-03-25T15:04:39;12.60;69.10
1129;DHT22;553;51.038;7.216;2024-03-25T15:07:13;12.50;70.10
1129;DHT22;553;51.038;7.216;2024-03-25T15:09:39;12.60;69.60
1129;DHT22;553;51.038;7.216;2024-03-25T15:12:05;12.80;70.20
1129;DHT22;553;51.038;7.216;2024-03-25T15:14:31;12.90;68.60
1129;DHT22;553;51.038;7.216;2024-03-25T15:16:57;12.80;69.40
1129;DHT22;553;51.038;7.216;2024-03-25T15:19:26;12.80;69.30
1129;DHT22;553;51.038;7.216;2024-03-25T15:21:52;12.80;68.60
1129;DHT22;553;51.038;7.216;2024-03-25T15:24:18;12.70;67.80
1129;DHT22;553;51.038;7.216;2024-03-25T15:26:44;12.60;68.20
1129;DHT22;553;51.038;7.216;2024-03-25T15:29:10;12.60;68.20
1129;DHT22;553;51.038;7.216;2024-03-25T15:31:36;12.60;68.50
1129;DHT22;553;51.038;7.216;2024-03-25T15:34:01;12.60;68.70
1129;DHT22;553;51.038;7.216;2024-03-25T15:36:27;12.60;69.30
1129;DHT22;553;51.038;7.216;2024-03-25T15:38:56;12.60;68.80
1129;DHT22;553;51.038;7.216;2024-03-25T15:41:22;12.50;68.90
1129;DHT22;553;51.038;7.216;2024-03-25T15:43:52;12.50;69.30
1129;DHT22;553;51.038;7.216;2024-03-25T15:46:18;12.50;70.60
1129;DHT22;553;51.038;7.216;2024-03-25T15:48:44;12.50;70.70
1129;DHT22;553;51.038;7.216;2024-03-25T15:51:10;12.50;70.90
1129;DHT22;553;51.038;7.216;2024-03-25T15:53:36;12.50;71.10
1129;DHT22;553;51.038;7.216;2024-03-25T15:56:03;12.60;71.40
1129;DHT22;553;51.038;7.216;2024-03-25T15:58:31;12.60;70.80
1129;DHT22;553;51.038;7.216;2024-03-25T16:00:57;12.60;71.30
1129;DHT22;553;51.038;7.216;2024-03-25T16:03:23;12.60;70.80
1129;DHT22;553;51.038;7.216;2024-03-25T16:05:49;12.60;71.20
1129;DHT22;553;51.038;7.216;2024-03-25T16:08:15;12.60;70.60
1129;DHT22;553;51.038;7.216;2024-03-25T16:10:41;12.60;70.30
1129;DHT22;553;51.038;7.216;2024-03-25T16:13:06;12.50;71.00
1129;DHT22;553;51.038;7.216;2024-03-25T16:15:33;12.40;71.10
1129;DHT22;553;51.038;7.216;2024-03-25T16:17:59;12.40;71.90
1129;DHT22;553;51.038;7.216;2024-03-25T16:20:31;12.40;72.00
1129;DHT22;553;51.038;7.216;2024-03-25T16:22:57;12.40;71.60
1129;DHT22;553;51.038;7.216;2024-03-25T16:25:23;12.50;71.40